<?xml version="1.0" encoding="UTF-8" standalone="no" ?>
<gpx xmlns="http://www.topografix.com/GPX/1/1" xmlns:xsi="http://www.w3.org/2001/XMLSchema-instance" xsi:schemaLocation="http://www.topografix.com/GPX/1/1 http://www.topografix.com/GPX/1/1/gpx.xsd" version="1.1" creator="VisuGPX - https://www.visugpx.com">
  <metadata>
    <name>BRC Charente 2024 Talmont sur Gironde</name>
    <desc><![CDATA[Départ du parking de Talmont (payant). Belle vue sur l’église.
]]></desc>
  </metadata>
  <trk>
    <name><![CDATA[BRC Charente Talmont sur Gironde]]></name>
    <trkseg>
      <trkpt lat="45.53674" lon="-0.90493">
        <ele>3</ele>
        <time>2024-09-20T09:20:16+02:00</time>
      </trkpt>
      <trkpt lat="45.53653" lon="-0.90507">
        <ele>4</ele>
        <time>2024-09-20T09:35:32+02:00</time>
      </trkpt>
      <trkpt lat="45.53634" lon="-0.90522">
        <ele>4</ele>
        <time>2024-09-20T09:36:05+02:00</time>
      </trkpt>
      <trkpt lat="45.53613" lon="-0.90535">
        <ele>4</ele>
        <time>2024-09-20T09:36:26+02:00</time>
      </trkpt>
      <trkpt lat="45.53591" lon="-0.90526">
        <ele>5</ele>
        <time>2024-09-20T09:36:57+02:00</time>
      </trkpt>
      <trkpt lat="45.53586" lon="-0.90494">
        <ele>5</ele>
        <time>2024-09-20T09:37:20+02:00</time>
      </trkpt>
      <trkpt lat="45.53581" lon="-0.90461">
        <ele>5</ele>
        <time>2024-09-20T09:37:39+02:00</time>
      </trkpt>
      <trkpt lat="45.53576" lon="-0.9043">
        <ele>6</ele>
        <time>2024-09-20T09:38:00+02:00</time>
      </trkpt>
      <trkpt lat="45.53565" lon="-0.90401">
        <ele>5</ele>
        <time>2024-09-20T09:38:21+02:00</time>
      </trkpt>
      <trkpt lat="45.53554" lon="-0.90373">
        <ele>4</ele>
        <time>2024-09-20T09:38:41+02:00</time>
      </trkpt>
      <trkpt lat="45.53542" lon="-0.90344">
        <ele>5</ele>
        <time>2024-09-20T09:39:02+02:00</time>
      </trkpt>
      <trkpt lat="45.53528" lon="-0.90317">
        <ele>4</ele>
        <time>2024-09-20T09:39:22+02:00</time>
      </trkpt>
      <trkpt lat="45.53512" lon="-0.90292">
        <ele>3</ele>
        <time>2024-09-20T09:39:42+02:00</time>
      </trkpt>
      <trkpt lat="45.53497" lon="-0.90269">
        <ele>3</ele>
        <time>2024-09-20T09:40:02+02:00</time>
      </trkpt>
      <trkpt lat="45.53482" lon="-0.90245">
        <ele>4</ele>
        <time>2024-09-20T09:40:21+02:00</time>
      </trkpt>
      <trkpt lat="45.53474" lon="-0.90213">
        <ele>6</ele>
        <time>2024-09-20T09:40:42+02:00</time>
      </trkpt>
      <trkpt lat="45.53458" lon="-0.90191">
        <ele>5</ele>
        <time>2024-09-20T09:41:02+02:00</time>
      </trkpt>
      <trkpt lat="45.53435" lon="-0.90182">
        <ele>6</ele>
        <time>2024-09-20T09:41:20+02:00</time>
      </trkpt>
      <trkpt lat="45.53413" lon="-0.90189">
        <ele>7</ele>
        <time>2024-09-20T09:41:38+02:00</time>
      </trkpt>
      <trkpt lat="45.53391" lon="-0.90178">
        <ele>9</ele>
        <time>2024-09-20T09:41:57+02:00</time>
      </trkpt>
      <trkpt lat="45.53368" lon="-0.90175">
        <ele>11</ele>
        <time>2024-09-20T09:42:19+02:00</time>
      </trkpt>
      <trkpt lat="45.53349" lon="-0.90194">
        <ele>12</ele>
        <time>2024-09-20T09:42:52+02:00</time>
      </trkpt>
      <trkpt lat="45.53335" lon="-0.90219">
        <ele>12</ele>
        <time>2024-09-20T09:43:14+02:00</time>
      </trkpt>
      <trkpt lat="45.53317" lon="-0.90238">
        <ele>11</ele>
        <time>2024-09-20T09:43:35+02:00</time>
      </trkpt>
      <trkpt lat="45.53299" lon="-0.90259">
        <ele>13</ele>
        <time>2024-09-20T09:43:52+02:00</time>
      </trkpt>
      <trkpt lat="45.53277" lon="-0.90254">
        <ele>12</ele>
        <time>2024-09-20T09:44:15+02:00</time>
      </trkpt>
      <trkpt lat="45.53256" lon="-0.90268">
        <ele>12</ele>
        <time>2024-09-20T09:44:34+02:00</time>
      </trkpt>
      <trkpt lat="45.53238" lon="-0.90287">
        <ele>13</ele>
        <time>2024-09-20T09:44:54+02:00</time>
      </trkpt>
      <trkpt lat="45.53222" lon="-0.90312">
        <ele>15</ele>
        <time>2024-09-20T09:46:08+02:00</time>
      </trkpt>
      <trkpt lat="45.53221" lon="-0.9028">
        <ele>15</ele>
        <time>2024-09-20T10:00:00+02:00</time>
      </trkpt>
      <trkpt lat="45.53207" lon="-0.90253">
        <ele>15</ele>
        <time>2024-09-20T10:00:28+02:00</time>
      </trkpt>
      <trkpt lat="45.53187" lon="-0.90238">
        <ele>15</ele>
        <time>2024-09-20T10:01:07+02:00</time>
      </trkpt>
      <trkpt lat="45.53173" lon="-0.90213">
        <ele>17</ele>
        <time>2024-09-20T10:01:30+02:00</time>
      </trkpt>
      <trkpt lat="45.53158" lon="-0.90188">
        <ele>18</ele>
        <time>2024-09-20T10:01:59+02:00</time>
      </trkpt>
      <trkpt lat="45.53142" lon="-0.90165">
        <ele>20</ele>
        <time>2024-09-20T10:02:38+02:00</time>
      </trkpt>
      <trkpt lat="45.53124" lon="-0.90142">
        <ele>18</ele>
        <time>2024-09-20T10:02:59+02:00</time>
      </trkpt>
      <trkpt lat="45.5311" lon="-0.90117">
        <ele>19</ele>
        <time>2024-09-20T10:03:17+02:00</time>
      </trkpt>
      <trkpt lat="45.53098" lon="-0.90088">
        <ele>21</ele>
        <time>2024-09-20T10:03:43+02:00</time>
      </trkpt>
      <trkpt lat="45.53084" lon="-0.90061">
        <ele>22</ele>
        <time>2024-09-20T10:04:06+02:00</time>
      </trkpt>
      <trkpt lat="45.53074" lon="-0.90032">
        <ele>22</ele>
        <time>2024-09-20T10:04:28+02:00</time>
      </trkpt>
      <trkpt lat="45.53062" lon="-0.90003">
        <ele>24</ele>
        <time>2024-09-20T10:05:17+02:00</time>
      </trkpt>
      <trkpt lat="45.5305" lon="-0.89975">
        <ele>24</ele>
        <time>2024-09-20T10:10:24+02:00</time>
      </trkpt>
      <trkpt lat="45.5304" lon="-0.89946">
        <ele>24</ele>
        <time>2024-09-20T10:10:53+02:00</time>
      </trkpt>
      <trkpt lat="45.53029" lon="-0.89916">
        <ele>24</ele>
        <time>2024-09-20T10:11:20+02:00</time>
      </trkpt>
      <trkpt lat="45.53029" lon="-0.89883">
        <ele>23</ele>
        <time>2024-09-20T10:11:49+02:00</time>
      </trkpt>
      <trkpt lat="45.53017" lon="-0.89856">
        <ele>22</ele>
        <time>2024-09-20T10:12:16+02:00</time>
      </trkpt>
      <trkpt lat="45.53011" lon="-0.89824">
        <ele>23</ele>
        <time>2024-09-20T10:12:57+02:00</time>
      </trkpt>
      <trkpt lat="45.53002" lon="-0.89794">
        <ele>21</ele>
        <time>2024-09-20T10:13:18+02:00</time>
      </trkpt>
      <trkpt lat="45.52987" lon="-0.89769">
        <ele>23</ele>
        <time>2024-09-20T10:13:40+02:00</time>
      </trkpt>
      <trkpt lat="45.52977" lon="-0.8974">
        <ele>22</ele>
        <time>2024-09-20T10:13:58+02:00</time>
      </trkpt>
      <trkpt lat="45.52969" lon="-0.89709">
        <ele>23</ele>
        <time>2024-09-20T10:14:16+02:00</time>
      </trkpt>
      <trkpt lat="45.52957" lon="-0.89681">
        <ele>23</ele>
        <time>2024-09-20T10:14:35+02:00</time>
      </trkpt>
      <trkpt lat="45.52946" lon="-0.89653">
        <ele>22</ele>
        <time>2024-09-20T10:14:58+02:00</time>
      </trkpt>
      <trkpt lat="45.52936" lon="-0.89624">
        <ele>21</ele>
        <time>2024-09-20T10:15:17+02:00</time>
      </trkpt>
      <trkpt lat="45.52932" lon="-0.89592">
        <ele>20</ele>
        <time>2024-09-20T10:15:39+02:00</time>
      </trkpt>
      <trkpt lat="45.52944" lon="-0.89563">
        <ele>20</ele>
        <time>2024-09-20T10:16:01+02:00</time>
      </trkpt>
      <trkpt lat="45.52953" lon="-0.89533">
        <ele>19</ele>
        <time>2024-09-20T10:16:21+02:00</time>
      </trkpt>
      <trkpt lat="45.52964" lon="-0.89504">
        <ele>17</ele>
        <time>2024-09-20T10:16:40+02:00</time>
      </trkpt>
      <trkpt lat="45.52971" lon="-0.89473">
        <ele>14</ele>
        <time>2024-09-20T10:17:02+02:00</time>
      </trkpt>
      <trkpt lat="45.5299" lon="-0.89454">
        <ele>12</ele>
        <time>2024-09-20T10:17:24+02:00</time>
      </trkpt>
      <trkpt lat="45.53011" lon="-0.89441">
        <ele>14</ele>
        <time>2024-09-20T10:17:45+02:00</time>
      </trkpt>
      <trkpt lat="45.53032" lon="-0.89424">
        <ele>17</ele>
        <time>2024-09-20T10:18:05+02:00</time>
      </trkpt>
      <trkpt lat="45.53052" lon="-0.8941">
        <ele>16</ele>
        <time>2024-09-20T10:18:26+02:00</time>
      </trkpt>
      <trkpt lat="45.5307" lon="-0.89389">
        <ele>16</ele>
        <time>2024-09-20T10:18:47+02:00</time>
      </trkpt>
      <trkpt lat="45.53088" lon="-0.89369">
        <ele>15</ele>
        <time>2024-09-20T10:19:08+02:00</time>
      </trkpt>
      <trkpt lat="45.5311" lon="-0.89379">
        <ele>15</ele>
        <time>2024-09-20T10:19:26+02:00</time>
      </trkpt>
      <trkpt lat="45.53125" lon="-0.89354">
        <ele>13</ele>
        <time>2024-09-20T10:19:42+02:00</time>
      </trkpt>
      <trkpt lat="45.53147" lon="-0.89362">
        <ele>13</ele>
        <time>2024-09-20T10:20:01+02:00</time>
      </trkpt>
      <trkpt lat="45.53167" lon="-0.89346">
        <ele>12</ele>
        <time>2024-09-20T10:20:19+02:00</time>
      </trkpt>
      <trkpt lat="45.53173" lon="-0.89313">
        <ele>12</ele>
        <time>2024-09-20T10:20:37+02:00</time>
      </trkpt>
      <trkpt lat="45.53176" lon="-0.8928">
        <ele>12</ele>
        <time>2024-09-20T10:20:55+02:00</time>
      </trkpt>
      <trkpt lat="45.53181" lon="-0.89247">
        <ele>10</ele>
        <time>2024-09-20T10:21:12+02:00</time>
      </trkpt>
      <trkpt lat="45.53183" lon="-0.89215">
        <ele>10</ele>
        <time>2024-09-20T10:21:32+02:00</time>
      </trkpt>
      <trkpt lat="45.53182" lon="-0.89182">
        <ele>10</ele>
        <time>2024-09-20T10:21:50+02:00</time>
      </trkpt>
      <trkpt lat="45.53175" lon="-0.8915">
        <ele>9</ele>
        <time>2024-09-20T10:22:11+02:00</time>
      </trkpt>
      <trkpt lat="45.5317" lon="-0.89117">
        <ele>7</ele>
        <time>2024-09-20T10:22:31+02:00</time>
      </trkpt>
      <trkpt lat="45.53158" lon="-0.89089">
        <ele>6</ele>
        <time>2024-09-20T10:22:51+02:00</time>
      </trkpt>
      <trkpt lat="45.53147" lon="-0.89061">
        <ele>6</ele>
        <time>2024-09-20T10:23:10+02:00</time>
      </trkpt>
      <trkpt lat="45.5313" lon="-0.89039">
        <ele>6</ele>
        <time>2024-09-20T10:23:30+02:00</time>
      </trkpt>
      <trkpt lat="45.5312" lon="-0.8901">
        <ele>5</ele>
        <time>2024-09-20T10:23:50+02:00</time>
      </trkpt>
      <trkpt lat="45.53109" lon="-0.88981">
        <ele>5</ele>
        <time>2024-09-20T10:24:09+02:00</time>
      </trkpt>
      <trkpt lat="45.53099" lon="-0.88951">
        <ele>5</ele>
        <time>2024-09-20T10:24:28+02:00</time>
      </trkpt>
      <trkpt lat="45.53088" lon="-0.88922">
        <ele>4</ele>
        <time>2024-09-20T10:24:48+02:00</time>
      </trkpt>
      <trkpt lat="45.53077" lon="-0.88893">
        <ele>4</ele>
        <time>2024-09-20T10:25:08+02:00</time>
      </trkpt>
      <trkpt lat="45.53066" lon="-0.88865">
        <ele>5</ele>
        <time>2024-09-20T10:25:26+02:00</time>
      </trkpt>
      <trkpt lat="45.53056" lon="-0.88836">
        <ele>5</ele>
        <time>2024-09-20T10:25:45+02:00</time>
      </trkpt>
      <trkpt lat="45.53045" lon="-0.88808">
        <ele>5</ele>
        <time>2024-09-20T10:26:04+02:00</time>
      </trkpt>
      <trkpt lat="45.53033" lon="-0.88778">
        <ele>5</ele>
        <time>2024-09-20T10:26:26+02:00</time>
      </trkpt>
      <trkpt lat="45.53023" lon="-0.8875">
        <ele>5</ele>
        <time>2024-09-20T10:26:45+02:00</time>
      </trkpt>
      <trkpt lat="45.53009" lon="-0.88723">
        <ele>3</ele>
        <time>2024-09-20T10:27:04+02:00</time>
      </trkpt>
      <trkpt lat="45.52998" lon="-0.88694">
        <ele>4</ele>
        <time>2024-09-20T10:27:25+02:00</time>
      </trkpt>
      <trkpt lat="45.52991" lon="-0.88663">
        <ele>4</ele>
        <time>2024-09-20T10:27:45+02:00</time>
      </trkpt>
      <trkpt lat="45.52982" lon="-0.88633">
        <ele>5</ele>
        <time>2024-09-20T10:28:05+02:00</time>
      </trkpt>
      <trkpt lat="45.52972" lon="-0.88603">
        <ele>4</ele>
        <time>2024-09-20T10:28:26+02:00</time>
      </trkpt>
      <trkpt lat="45.52961" lon="-0.88575">
        <ele>4</ele>
        <time>2024-09-20T10:28:43+02:00</time>
      </trkpt>
      <trkpt lat="45.52949" lon="-0.88547">
        <ele>5</ele>
        <time>2024-09-20T10:29:04+02:00</time>
      </trkpt>
      <trkpt lat="45.52936" lon="-0.8852">
        <ele>3</ele>
        <time>2024-09-20T10:29:24+02:00</time>
      </trkpt>
      <trkpt lat="45.52921" lon="-0.88495">
        <ele>3</ele>
        <time>2024-09-20T10:29:43+02:00</time>
      </trkpt>
      <trkpt lat="45.52907" lon="-0.8847">
        <ele>5</ele>
        <time>2024-09-20T10:30:01+02:00</time>
      </trkpt>
      <trkpt lat="45.52893" lon="-0.88443">
        <ele>4</ele>
        <time>2024-09-20T10:30:21+02:00</time>
      </trkpt>
      <trkpt lat="45.52882" lon="-0.88414">
        <ele>3</ele>
        <time>2024-09-20T10:30:40+02:00</time>
      </trkpt>
      <trkpt lat="45.52864" lon="-0.88393">
        <ele>5</ele>
        <time>2024-09-20T10:31:00+02:00</time>
      </trkpt>
      <trkpt lat="45.52848" lon="-0.8837">
        <ele>5</ele>
        <time>2024-09-20T10:31:19+02:00</time>
      </trkpt>
      <trkpt lat="45.52833" lon="-0.88345">
        <ele>6</ele>
        <time>2024-09-20T10:31:39+02:00</time>
      </trkpt>
      <trkpt lat="45.52817" lon="-0.88324">
        <ele>6</ele>
        <time>2024-09-20T10:31:58+02:00</time>
      </trkpt>
      <trkpt lat="45.52804" lon="-0.88296">
        <ele>6</ele>
        <time>2024-09-20T10:39:48+02:00</time>
      </trkpt>
      <trkpt lat="45.52786" lon="-0.88276">
        <ele>6</ele>
        <time>2024-09-20T10:46:56+02:00</time>
      </trkpt>
      <trkpt lat="45.52769" lon="-0.88254">
        <ele>5</ele>
        <time>2024-09-20T10:47:17+02:00</time>
      </trkpt>
      <trkpt lat="45.52753" lon="-0.8823">
        <ele>6</ele>
        <time>2024-09-20T10:47:37+02:00</time>
      </trkpt>
      <trkpt lat="45.52737" lon="-0.88206">
        <ele>6</ele>
        <time>2024-09-20T10:47:59+02:00</time>
      </trkpt>
      <trkpt lat="45.52719" lon="-0.88184">
        <ele>7</ele>
        <time>2024-09-20T10:48:20+02:00</time>
      </trkpt>
      <trkpt lat="45.52703" lon="-0.88161">
        <ele>7</ele>
        <time>2024-09-20T10:48:41+02:00</time>
      </trkpt>
      <trkpt lat="45.52685" lon="-0.88139">
        <ele>6</ele>
        <time>2024-09-20T10:49:01+02:00</time>
      </trkpt>
      <trkpt lat="45.52668" lon="-0.88118">
        <ele>6</ele>
        <time>2024-09-20T10:49:20+02:00</time>
      </trkpt>
      <trkpt lat="45.5265" lon="-0.88099">
        <ele>6</ele>
        <time>2024-09-20T10:49:43+02:00</time>
      </trkpt>
      <trkpt lat="45.52666" lon="-0.88076">
        <ele>8</ele>
        <time>2024-09-20T10:50:29+02:00</time>
      </trkpt>
      <trkpt lat="45.52689" lon="-0.8807">
        <ele>9</ele>
        <time>2024-09-20T10:50:50+02:00</time>
      </trkpt>
      <trkpt lat="45.52712" lon="-0.88067">
        <ele>11</ele>
        <time>2024-09-20T10:51:13+02:00</time>
      </trkpt>
      <trkpt lat="45.52717" lon="-0.88036">
        <ele>11</ele>
        <time>2024-09-20T10:51:32+02:00</time>
      </trkpt>
      <trkpt lat="45.52713" lon="-0.88004">
        <ele>11</ele>
        <time>2024-09-20T10:51:53+02:00</time>
      </trkpt>
      <trkpt lat="45.5271" lon="-0.87972">
        <ele>12</ele>
        <time>2024-09-20T10:52:14+02:00</time>
      </trkpt>
      <trkpt lat="45.52702" lon="-0.87941">
        <ele>13</ele>
        <time>2024-09-20T10:52:34+02:00</time>
      </trkpt>
      <trkpt lat="45.52692" lon="-0.87912">
        <ele>14</ele>
        <time>2024-09-20T10:52:53+02:00</time>
      </trkpt>
      <trkpt lat="45.52679" lon="-0.87886">
        <ele>15</ele>
        <time>2024-09-20T10:53:12+02:00</time>
      </trkpt>
      <trkpt lat="45.52665" lon="-0.8786">
        <ele>16</ele>
        <time>2024-09-20T10:53:32+02:00</time>
      </trkpt>
      <trkpt lat="45.5265" lon="-0.87835">
        <ele>14</ele>
        <time>2024-09-20T10:53:54+02:00</time>
      </trkpt>
      <trkpt lat="45.52637" lon="-0.87808">
        <ele>14</ele>
        <time>2024-09-20T10:54:16+02:00</time>
      </trkpt>
      <trkpt lat="45.52625" lon="-0.87781">
        <ele>14</ele>
        <time>2024-09-20T10:54:35+02:00</time>
      </trkpt>
      <trkpt lat="45.52611" lon="-0.87755">
        <ele>13</ele>
        <time>2024-09-20T10:54:55+02:00</time>
      </trkpt>
      <trkpt lat="45.52596" lon="-0.87731">
        <ele>14</ele>
        <time>2024-09-20T10:55:13+02:00</time>
      </trkpt>
      <trkpt lat="45.52578" lon="-0.87711">
        <ele>14</ele>
        <time>2024-09-20T10:55:32+02:00</time>
      </trkpt>
      <trkpt lat="45.5256" lon="-0.87691">
        <ele>16</ele>
        <time>2024-09-20T10:55:50+02:00</time>
      </trkpt>
      <trkpt lat="45.52544" lon="-0.87668">
        <ele>17</ele>
        <time>2024-09-20T10:56:08+02:00</time>
      </trkpt>
      <trkpt lat="45.52528" lon="-0.87644">
        <ele>18</ele>
        <time>2024-09-20T10:56:27+02:00</time>
      </trkpt>
      <trkpt lat="45.52514" lon="-0.87617">
        <ele>21</ele>
        <time>2024-09-20T10:56:47+02:00</time>
      </trkpt>
      <trkpt lat="45.52496" lon="-0.87596">
        <ele>23</ele>
        <time>2024-09-20T10:57:08+02:00</time>
      </trkpt>
      <trkpt lat="45.52479" lon="-0.87573">
        <ele>24</ele>
        <time>2024-09-20T10:57:26+02:00</time>
      </trkpt>
      <trkpt lat="45.52461" lon="-0.87553">
        <ele>25</ele>
        <time>2024-09-20T10:57:48+02:00</time>
      </trkpt>
      <trkpt lat="45.52445" lon="-0.8753">
        <ele>27</ele>
        <time>2024-09-20T10:58:06+02:00</time>
      </trkpt>
      <trkpt lat="45.52431" lon="-0.87504">
        <ele>28</ele>
        <time>2024-09-20T10:58:27+02:00</time>
      </trkpt>
      <trkpt lat="45.52418" lon="-0.87478">
        <ele>29</ele>
        <time>2024-09-20T10:58:47+02:00</time>
      </trkpt>
      <trkpt lat="45.52402" lon="-0.87455">
        <ele>31</ele>
        <time>2024-09-20T10:59:06+02:00</time>
      </trkpt>
      <trkpt lat="45.52382" lon="-0.87438">
        <ele>33</ele>
        <time>2024-09-20T10:59:29+02:00</time>
      </trkpt>
      <trkpt lat="45.52361" lon="-0.87423">
        <ele>35</ele>
        <time>2024-09-20T10:59:50+02:00</time>
      </trkpt>
      <trkpt lat="45.52342" lon="-0.87402">
        <ele>36</ele>
        <time>2024-09-20T11:00:11+02:00</time>
      </trkpt>
      <trkpt lat="45.52326" lon="-0.87378">
        <ele>37</ele>
        <time>2024-09-20T11:00:31+02:00</time>
      </trkpt>
      <trkpt lat="45.52309" lon="-0.87357">
        <ele>37</ele>
        <time>2024-09-20T11:00:49+02:00</time>
      </trkpt>
      <trkpt lat="45.52292" lon="-0.87333">
        <ele>36</ele>
        <time>2024-09-20T11:01:07+02:00</time>
      </trkpt>
      <trkpt lat="45.52274" lon="-0.87312">
        <ele>35</ele>
        <time>2024-09-20T11:01:25+02:00</time>
      </trkpt>
      <trkpt lat="45.52259" lon="-0.87288">
        <ele>35</ele>
        <time>2024-09-20T11:01:44+02:00</time>
      </trkpt>
      <trkpt lat="45.52274" lon="-0.87312">
        <ele>34</ele>
        <time>2024-09-20T11:07:39+02:00</time>
      </trkpt>
      <trkpt lat="45.52291" lon="-0.87334">
        <ele>36</ele>
        <time>2024-09-20T11:08:00+02:00</time>
      </trkpt>
      <trkpt lat="45.52308" lon="-0.87356">
        <ele>37</ele>
        <time>2024-09-20T11:08:20+02:00</time>
      </trkpt>
      <trkpt lat="45.52326" lon="-0.87377">
        <ele>37</ele>
        <time>2024-09-20T11:08:40+02:00</time>
      </trkpt>
      <trkpt lat="45.52342" lon="-0.87399">
        <ele>36</ele>
        <time>2024-09-20T11:09:01+02:00</time>
      </trkpt>
      <trkpt lat="45.52359" lon="-0.87421">
        <ele>35</ele>
        <time>2024-09-20T11:09:23+02:00</time>
      </trkpt>
      <trkpt lat="45.52379" lon="-0.87438">
        <ele>33</ele>
        <time>2024-09-20T11:09:47+02:00</time>
      </trkpt>
      <trkpt lat="45.52398" lon="-0.87456">
        <ele>31</ele>
        <time>2024-09-20T11:10:16+02:00</time>
      </trkpt>
      <trkpt lat="45.52415" lon="-0.87478">
        <ele>30</ele>
        <time>2024-09-20T11:10:35+02:00</time>
      </trkpt>
      <trkpt lat="45.52428" lon="-0.87505">
        <ele>27</ele>
        <time>2024-09-20T11:10:55+02:00</time>
      </trkpt>
      <trkpt lat="45.52443" lon="-0.87531">
        <ele>26</ele>
        <time>2024-09-20T11:11:15+02:00</time>
      </trkpt>
      <trkpt lat="45.52459" lon="-0.87554">
        <ele>26</ele>
        <time>2024-09-20T11:11:36+02:00</time>
      </trkpt>
      <trkpt lat="45.52475" lon="-0.87578">
        <ele>23</ele>
        <time>2024-09-20T11:12:01+02:00</time>
      </trkpt>
      <trkpt lat="45.52492" lon="-0.87599">
        <ele>21</ele>
        <time>2024-09-20T11:12:21+02:00</time>
      </trkpt>
      <trkpt lat="45.52512" lon="-0.87617">
        <ele>20</ele>
        <time>2024-09-20T11:12:41+02:00</time>
      </trkpt>
      <trkpt lat="45.52526" lon="-0.87643">
        <ele>18</ele>
        <time>2024-09-20T11:13:02+02:00</time>
      </trkpt>
      <trkpt lat="45.52541" lon="-0.87668">
        <ele>16</ele>
        <time>2024-09-20T11:13:23+02:00</time>
      </trkpt>
      <trkpt lat="45.52557" lon="-0.87692">
        <ele>15</ele>
        <time>2024-09-20T11:13:43+02:00</time>
      </trkpt>
      <trkpt lat="45.52577" lon="-0.8771">
        <ele>14</ele>
        <time>2024-09-20T11:14:09+02:00</time>
      </trkpt>
      <trkpt lat="45.52595" lon="-0.87732">
        <ele>13</ele>
        <time>2024-09-20T11:14:28+02:00</time>
      </trkpt>
      <trkpt lat="45.52612" lon="-0.87754">
        <ele>13</ele>
        <time>2024-09-20T11:14:49+02:00</time>
      </trkpt>
      <trkpt lat="45.52626" lon="-0.87779">
        <ele>12</ele>
        <time>2024-09-20T11:15:11+02:00</time>
      </trkpt>
      <trkpt lat="45.52638" lon="-0.87808">
        <ele>14</ele>
        <time>2024-09-20T11:15:30+02:00</time>
      </trkpt>
      <trkpt lat="45.52651" lon="-0.87835">
        <ele>14</ele>
        <time>2024-09-20T11:15:52+02:00</time>
      </trkpt>
      <trkpt lat="45.52664" lon="-0.87862">
        <ele>13</ele>
        <time>2024-09-20T11:16:14+02:00</time>
      </trkpt>
      <trkpt lat="45.5268" lon="-0.87886">
        <ele>15</ele>
        <time>2024-09-20T11:16:34+02:00</time>
      </trkpt>
      <trkpt lat="45.52692" lon="-0.87915">
        <ele>15</ele>
        <time>2024-09-20T11:16:53+02:00</time>
      </trkpt>
      <trkpt lat="45.52702" lon="-0.87945">
        <ele>13</ele>
        <time>2024-09-20T11:17:14+02:00</time>
      </trkpt>
      <trkpt lat="45.52706" lon="-0.87978">
        <ele>12</ele>
        <time>2024-09-20T11:17:34+02:00</time>
      </trkpt>
      <trkpt lat="45.52708" lon="-0.88011">
        <ele>11</ele>
        <time>2024-09-20T11:17:53+02:00</time>
      </trkpt>
      <trkpt lat="45.52713" lon="-0.88043">
        <ele>11</ele>
        <time>2024-09-20T11:18:11+02:00</time>
      </trkpt>
      <trkpt lat="45.52695" lon="-0.88064">
        <ele>10</ele>
        <time>2024-09-20T11:20:13+02:00</time>
      </trkpt>
      <trkpt lat="45.52672" lon="-0.8807">
        <ele>9</ele>
        <time>2024-09-20T11:20:36+02:00</time>
      </trkpt>
      <trkpt lat="45.52649" lon="-0.88077">
        <ele>6</ele>
        <time>2024-09-20T11:20:58+02:00</time>
      </trkpt>
      <trkpt lat="45.52657" lon="-0.88108">
        <ele>6</ele>
        <time>2024-09-20T11:21:24+02:00</time>
      </trkpt>
      <trkpt lat="45.52675" lon="-0.88129">
        <ele>6</ele>
        <time>2024-09-20T11:21:44+02:00</time>
      </trkpt>
      <trkpt lat="45.52692" lon="-0.88152">
        <ele>6</ele>
        <time>2024-09-20T11:22:03+02:00</time>
      </trkpt>
      <trkpt lat="45.5271" lon="-0.88172">
        <ele>6</ele>
        <time>2024-09-20T11:22:21+02:00</time>
      </trkpt>
      <trkpt lat="45.52727" lon="-0.88196">
        <ele>7</ele>
        <time>2024-09-20T11:22:41+02:00</time>
      </trkpt>
      <trkpt lat="45.52743" lon="-0.8822">
        <ele>6</ele>
        <time>2024-09-20T11:23:00+02:00</time>
      </trkpt>
      <trkpt lat="45.52759" lon="-0.88242">
        <ele>6</ele>
        <time>2024-09-20T11:23:20+02:00</time>
      </trkpt>
      <trkpt lat="45.52774" lon="-0.88266">
        <ele>6</ele>
        <time>2024-09-20T11:23:40+02:00</time>
      </trkpt>
      <trkpt lat="45.52791" lon="-0.8829">
        <ele>6</ele>
        <time>2024-09-20T11:24:02+02:00</time>
      </trkpt>
      <trkpt lat="45.52806" lon="-0.88314">
        <ele>6</ele>
        <time>2024-09-20T11:26:00+02:00</time>
      </trkpt>
      <trkpt lat="45.52822" lon="-0.88338">
        <ele>6</ele>
        <time>2024-09-20T11:26:20+02:00</time>
      </trkpt>
      <trkpt lat="45.52838" lon="-0.88361">
        <ele>5</ele>
        <time>2024-09-20T11:26:40+02:00</time>
      </trkpt>
      <trkpt lat="45.52854" lon="-0.88384">
        <ele>5</ele>
        <time>2024-09-20T11:26:59+02:00</time>
      </trkpt>
      <trkpt lat="45.5287" lon="-0.88407">
        <ele>4</ele>
        <time>2024-09-20T11:27:17+02:00</time>
      </trkpt>
      <trkpt lat="45.52886" lon="-0.8843">
        <ele>6</ele>
        <time>2024-09-20T11:27:36+02:00</time>
      </trkpt>
      <trkpt lat="45.529" lon="-0.88457">
        <ele>4</ele>
        <time>2024-09-20T11:27:56+02:00</time>
      </trkpt>
      <trkpt lat="45.52911" lon="-0.88487">
        <ele>5</ele>
        <time>2024-09-20T11:28:15+02:00</time>
      </trkpt>
      <trkpt lat="45.52927" lon="-0.88511">
        <ele>5</ele>
        <time>2024-09-20T11:28:33+02:00</time>
      </trkpt>
      <trkpt lat="45.52941" lon="-0.88537">
        <ele>5</ele>
        <time>2024-09-20T11:28:51+02:00</time>
      </trkpt>
      <trkpt lat="45.52954" lon="-0.88565">
        <ele>5</ele>
        <time>2024-09-20T11:29:08+02:00</time>
      </trkpt>
      <trkpt lat="45.52964" lon="-0.88595">
        <ele>5</ele>
        <time>2024-09-20T11:29:28+02:00</time>
      </trkpt>
      <trkpt lat="45.52975" lon="-0.88625">
        <ele>6</ele>
        <time>2024-09-20T11:29:47+02:00</time>
      </trkpt>
      <trkpt lat="45.52985" lon="-0.88654">
        <ele>5</ele>
        <time>2024-09-20T11:30:06+02:00</time>
      </trkpt>
      <trkpt lat="45.52992" lon="-0.88685">
        <ele>4</ele>
        <time>2024-09-20T11:30:26+02:00</time>
      </trkpt>
      <trkpt lat="45.53001" lon="-0.88715">
        <ele>4</ele>
        <time>2024-09-20T11:30:58+02:00</time>
      </trkpt>
      <trkpt lat="45.53015" lon="-0.88741">
        <ele>4</ele>
        <time>2024-09-20T11:31:17+02:00</time>
      </trkpt>
      <trkpt lat="45.53027" lon="-0.88769">
        <ele>5</ele>
        <time>2024-09-20T11:31:38+02:00</time>
      </trkpt>
      <trkpt lat="45.53039" lon="-0.88798">
        <ele>6</ele>
        <time>2024-09-20T11:31:57+02:00</time>
      </trkpt>
      <trkpt lat="45.5305" lon="-0.88827">
        <ele>3</ele>
        <time>2024-09-20T11:32:20+02:00</time>
      </trkpt>
      <trkpt lat="45.53059" lon="-0.88857">
        <ele>5</ele>
        <time>2024-09-20T11:32:38+02:00</time>
      </trkpt>
      <trkpt lat="45.53071" lon="-0.88884">
        <ele>6</ele>
        <time>2024-09-20T11:32:58+02:00</time>
      </trkpt>
      <trkpt lat="45.53082" lon="-0.88914">
        <ele>6</ele>
        <time>2024-09-20T11:33:17+02:00</time>
      </trkpt>
      <trkpt lat="45.53093" lon="-0.88941">
        <ele>3</ele>
        <time>2024-09-20T11:33:36+02:00</time>
      </trkpt>
      <trkpt lat="45.53103" lon="-0.88971">
        <ele>5</ele>
        <time>2024-09-20T11:33:55+02:00</time>
      </trkpt>
      <trkpt lat="45.53113" lon="-0.89">
        <ele>5</ele>
        <time>2024-09-20T11:34:13+02:00</time>
      </trkpt>
      <trkpt lat="45.53124" lon="-0.89029">
        <ele>5</ele>
        <time>2024-09-20T11:34:33+02:00</time>
      </trkpt>
      <trkpt lat="45.53139" lon="-0.89054">
        <ele>7</ele>
        <time>2024-09-20T11:34:53+02:00</time>
      </trkpt>
      <trkpt lat="45.53154" lon="-0.89079">
        <ele>7</ele>
        <time>2024-09-20T11:35:15+02:00</time>
      </trkpt>
      <trkpt lat="45.53163" lon="-0.89109">
        <ele>7</ele>
        <time>2024-09-20T11:35:36+02:00</time>
      </trkpt>
      <trkpt lat="45.53172" lon="-0.89142">
        <ele>9</ele>
        <time>2024-09-20T11:35:57+02:00</time>
      </trkpt>
      <trkpt lat="45.53179" lon="-0.89173">
        <ele>10</ele>
        <time>2024-09-20T11:36:24+02:00</time>
      </trkpt>
      <trkpt lat="45.53181" lon="-0.89205">
        <ele>10</ele>
        <time>2024-09-20T11:36:45+02:00</time>
      </trkpt>
      <trkpt lat="45.53178" lon="-0.89238">
        <ele>10</ele>
        <time>2024-09-20T11:37:06+02:00</time>
      </trkpt>
      <trkpt lat="45.53174" lon="-0.89271">
        <ele>12</ele>
        <time>2024-09-20T11:37:27+02:00</time>
      </trkpt>
      <trkpt lat="45.53171" lon="-0.89303">
        <ele>11</ele>
        <time>2024-09-20T11:37:48+02:00</time>
      </trkpt>
      <trkpt lat="45.53171" lon="-0.89335">
        <ele>12</ele>
        <time>2024-09-20T11:38:10+02:00</time>
      </trkpt>
      <trkpt lat="45.53156" lon="-0.8936">
        <ele>13</ele>
        <time>2024-09-20T11:38:33+02:00</time>
      </trkpt>
      <trkpt lat="45.53134" lon="-0.89356">
        <ele>14</ele>
        <time>2024-09-20T11:38:58+02:00</time>
      </trkpt>
      <trkpt lat="45.53113" lon="-0.89371">
        <ele>14</ele>
        <time>2024-09-20T11:39:24+02:00</time>
      </trkpt>
      <trkpt lat="45.53091" lon="-0.8937">
        <ele>16</ele>
        <time>2024-09-20T11:39:49+02:00</time>
      </trkpt>
      <trkpt lat="45.53073" lon="-0.89391">
        <ele>17</ele>
        <time>2024-09-20T11:40:13+02:00</time>
      </trkpt>
      <trkpt lat="45.53055" lon="-0.8941">
        <ele>19</ele>
        <time>2024-09-20T11:40:37+02:00</time>
      </trkpt>
      <trkpt lat="45.53036" lon="-0.89427">
        <ele>18</ele>
        <time>2024-09-20T11:41:00+02:00</time>
      </trkpt>
      <trkpt lat="45.53015" lon="-0.89441">
        <ele>16</ele>
        <time>2024-09-20T11:41:24+02:00</time>
      </trkpt>
      <trkpt lat="45.52994" lon="-0.89456">
        <ele>15</ele>
        <time>2024-09-20T11:41:46+02:00</time>
      </trkpt>
      <trkpt lat="45.52974" lon="-0.89475">
        <ele>14</ele>
        <time>2024-09-20T11:42:11+02:00</time>
      </trkpt>
      <trkpt lat="45.52962" lon="-0.89503">
        <ele>15</ele>
        <time>2024-09-20T11:42:33+02:00</time>
      </trkpt>
      <trkpt lat="45.52953" lon="-0.89532">
        <ele>18</ele>
        <time>2024-09-20T11:42:54+02:00</time>
      </trkpt>
      <trkpt lat="45.52943" lon="-0.89562">
        <ele>20</ele>
        <time>2024-09-20T11:43:16+02:00</time>
      </trkpt>
      <trkpt lat="45.52933" lon="-0.89591">
        <ele>20</ele>
        <time>2024-09-20T11:43:39+02:00</time>
      </trkpt>
      <trkpt lat="45.52935" lon="-0.89624">
        <ele>21</ele>
        <time>2024-09-20T11:44:01+02:00</time>
      </trkpt>
      <trkpt lat="45.52946" lon="-0.89653">
        <ele>23</ele>
        <time>2024-09-20T11:44:22+02:00</time>
      </trkpt>
      <trkpt lat="45.52956" lon="-0.89683">
        <ele>23</ele>
        <time>2024-09-20T11:44:44+02:00</time>
      </trkpt>
      <trkpt lat="45.52965" lon="-0.89713">
        <ele>23</ele>
        <time>2024-09-20T11:45:06+02:00</time>
      </trkpt>
      <trkpt lat="45.52975" lon="-0.89742">
        <ele>24</ele>
        <time>2024-09-20T11:45:27+02:00</time>
      </trkpt>
      <trkpt lat="45.52985" lon="-0.89771">
        <ele>24</ele>
        <time>2024-09-20T11:45:46+02:00</time>
      </trkpt>
      <trkpt lat="45.52996" lon="-0.898">
        <ele>23</ele>
        <time>2024-09-20T11:46:10+02:00</time>
      </trkpt>
      <trkpt lat="45.53006" lon="-0.89829">
        <ele>23</ele>
        <time>2024-09-20T11:46:30+02:00</time>
      </trkpt>
      <trkpt lat="45.53018" lon="-0.89858">
        <ele>23</ele>
        <time>2024-09-20T11:46:51+02:00</time>
      </trkpt>
      <trkpt lat="45.53024" lon="-0.89889">
        <ele>24</ele>
        <time>2024-09-20T11:47:11+02:00</time>
      </trkpt>
      <trkpt lat="45.53029" lon="-0.89922">
        <ele>24</ele>
        <time>2024-09-20T11:49:02+02:00</time>
      </trkpt>
      <trkpt lat="45.53042" lon="-0.8995">
        <ele>25</ele>
        <time>2024-09-20T11:49:24+02:00</time>
      </trkpt>
      <trkpt lat="45.53053" lon="-0.89978">
        <ele>25</ele>
        <time>2024-09-20T11:49:42+02:00</time>
      </trkpt>
      <trkpt lat="45.53064" lon="-0.90008">
        <ele>25</ele>
        <time>2024-09-20T11:50:02+02:00</time>
      </trkpt>
      <trkpt lat="45.53075" lon="-0.90037">
        <ele>24</ele>
        <time>2024-09-20T11:50:20+02:00</time>
      </trkpt>
      <trkpt lat="45.53085" lon="-0.90067">
        <ele>23</ele>
        <time>2024-09-20T11:50:45+02:00</time>
      </trkpt>
      <trkpt lat="45.53098" lon="-0.90093">
        <ele>22</ele>
        <time>2024-09-20T11:51:09+02:00</time>
      </trkpt>
      <trkpt lat="45.53112" lon="-0.90119">
        <ele>21</ele>
        <time>2024-09-20T11:51:35+02:00</time>
      </trkpt>
      <trkpt lat="45.53128" lon="-0.90143">
        <ele>21</ele>
        <time>2024-09-20T11:51:56+02:00</time>
      </trkpt>
      <trkpt lat="45.53144" lon="-0.90166">
        <ele>19</ele>
        <time>2024-09-20T11:52:15+02:00</time>
      </trkpt>
      <trkpt lat="45.53158" lon="-0.90192">
        <ele>18</ele>
        <time>2024-09-20T11:52:34+02:00</time>
      </trkpt>
      <trkpt lat="45.53172" lon="-0.90217">
        <ele>18</ele>
        <time>2024-09-20T11:53:00+02:00</time>
      </trkpt>
      <trkpt lat="45.53188" lon="-0.90241">
        <ele>17</ele>
        <time>2024-09-20T11:53:20+02:00</time>
      </trkpt>
      <trkpt lat="45.53205" lon="-0.90264">
        <ele>16</ele>
        <time>2024-09-20T11:53:40+02:00</time>
      </trkpt>
      <trkpt lat="45.53221" lon="-0.90287">
        <ele>14</ele>
        <time>2024-09-20T11:54:00+02:00</time>
      </trkpt>
      <trkpt lat="45.53243" lon="-0.90284">
        <ele>13</ele>
        <time>2024-09-20T11:54:18+02:00</time>
      </trkpt>
      <trkpt lat="45.53262" lon="-0.90265">
        <ele>13</ele>
        <time>2024-09-20T11:54:36+02:00</time>
      </trkpt>
      <trkpt lat="45.53284" lon="-0.90258">
        <ele>13</ele>
        <time>2024-09-20T11:54:55+02:00</time>
      </trkpt>
      <trkpt lat="45.53306" lon="-0.90248">
        <ele>12</ele>
        <time>2024-09-20T11:55:14+02:00</time>
      </trkpt>
      <trkpt lat="45.53326" lon="-0.9023">
        <ele>10</ele>
        <time>2024-09-20T11:55:32+02:00</time>
      </trkpt>
      <trkpt lat="45.53342" lon="-0.90206">
        <ele>11</ele>
        <time>2024-09-20T11:55:48+02:00</time>
      </trkpt>
      <trkpt lat="45.53359" lon="-0.90183">
        <ele>11</ele>
        <time>2024-09-20T11:56:05+02:00</time>
      </trkpt>
      <trkpt lat="45.53382" lon="-0.90183">
        <ele>9</ele>
        <time>2024-09-20T11:56:25+02:00</time>
      </trkpt>
      <trkpt lat="45.53404" lon="-0.90193">
        <ele>7</ele>
        <time>2024-09-20T11:56:42+02:00</time>
      </trkpt>
      <trkpt lat="45.53427" lon="-0.90189">
        <ele>6</ele>
        <time>2024-09-20T11:56:59+02:00</time>
      </trkpt>
      <trkpt lat="45.5345" lon="-0.90191">
        <ele>4</ele>
        <time>2024-09-20T11:57:21+02:00</time>
      </trkpt>
      <trkpt lat="45.53465" lon="-0.90216">
        <ele>5</ele>
        <time>2024-09-20T11:57:42+02:00</time>
      </trkpt>
      <trkpt lat="45.53478" lon="-0.90244">
        <ele>5</ele>
        <time>2024-09-20T11:58:04+02:00</time>
      </trkpt>
      <trkpt lat="45.53494" lon="-0.90268">
        <ele>4</ele>
        <time>2024-09-20T11:58:21+02:00</time>
      </trkpt>
      <trkpt lat="45.5351" lon="-0.90292">
        <ele>4</ele>
        <time>2024-09-20T11:58:39+02:00</time>
      </trkpt>
      <trkpt lat="45.53526" lon="-0.90316">
        <ele>4</ele>
        <time>2024-09-20T11:58:56+02:00</time>
      </trkpt>
      <trkpt lat="45.53539" lon="-0.90343">
        <ele>4</ele>
        <time>2024-09-20T11:59:12+02:00</time>
      </trkpt>
      <trkpt lat="45.53552" lon="-0.9037">
        <ele>4</ele>
        <time>2024-09-20T11:59:29+02:00</time>
      </trkpt>
      <trkpt lat="45.53564" lon="-0.904">
        <ele>4</ele>
        <time>2024-09-20T11:59:49+02:00</time>
      </trkpt>
      <trkpt lat="45.53575" lon="-0.90428">
        <ele>5</ele>
        <time>2024-09-20T12:00:08+02:00</time>
      </trkpt>
      <trkpt lat="45.53585" lon="-0.90458">
        <ele>5</ele>
        <time>2024-09-20T12:00:27+02:00</time>
      </trkpt>
      <trkpt lat="45.53601" lon="-0.9048">
        <ele>5</ele>
        <time>2024-09-20T12:00:48+02:00</time>
      </trkpt>
      <trkpt lat="45.53615" lon="-0.90506">
        <ele>5</ele>
        <time>2024-09-20T12:01:08+02:00</time>
      </trkpt>
      <trkpt lat="45.53634" lon="-0.90525">
        <ele>3</ele>
        <time>2024-09-20T12:01:32+02:00</time>
      </trkpt>
      <trkpt lat="45.53656" lon="-0.90513">
        <ele>4</ele>
        <time>2024-09-20T12:01:55+02:00</time>
      </trkpt>
    </trkseg>
  </trk>
</gpx>